createdAt,value
2019-01-03T00:07:54.942Z,87.80
2019-01-03T00:10:44.306Z,86.60
2019-01-03T00:13:33.277Z,86.90
2019-01-03T00:16:20.386Z,86.80
2019-01-03T00:19:09.516Z,86.30
2019-01-03T00:21:57.068Z,86.60
2019-01-03T00:25:05.344Z,85.80
2019-01-03T00:27:54.865Z,85.40
2019-01-03T00:30:44.259Z,84.90
2019-01-03T00:33:33.376Z,84.50
2019-01-03T00:36:22.551Z,83.60
2019-01-03T00:39:11.668Z,82.70
2019-01-03T00:42:00.727Z,84.20
2019-01-03T00:44:49.942Z,83.00
2019-01-03T00:47:39.133Z,83.50
2019-01-03T00:50:28.393Z,83.20
2019-01-03T00:53:18.597Z,82.70
2019-01-03T00:56:07.849Z,82.80
2019-01-03T00:58:57.319Z,82.20
2019-01-03T01:01:46.485Z,82.40
2019-01-03T01:04:35.592Z,82.20
2019-01-03T01:07:25.747Z,82.50
2019-01-03T01:10:14.929Z,82.10
2019-01-03T01:13:04.118Z,82.20
2019-01-03T01:15:53.132Z,82.40
2019-01-03T01:18:42.181Z,82.90
2019-01-03T01:21:25.237Z,82.90
2019-01-03T01:24:15.886Z,82.00
2019-01-03T01:27:04.869Z,81.10
2019-01-03T01:29:54.071Z,80.10
2019-01-03T01:32:35.992Z,80.00
2019-01-03T01:35:18.063Z,79.30
2019-01-03T01:38:05.005Z,79.10
2019-01-03T01:40:54.070Z,77.60
2019-01-03T01:43:43.070Z,77.60
2019-01-03T01:46:25.269Z,75.80
2019-01-03T01:49:06.451Z,76.10
2019-01-03T01:51:55.531Z,76.40
2019-01-03T01:54:45.995Z,76.00
2019-01-03T01:57:34.989Z,76.60
2019-01-03T02:00:24.859Z,76.30
2019-01-03T02:03:10.856Z,75.70
2019-01-03T02:05:55.358Z,76.10
2019-01-03T02:08:44.346Z,75.80
2019-01-03T02:11:33.482Z,76.00
2019-01-03T02:14:22.534Z,75.80
2019-01-03T02:17:11.515Z,75.30
2019-01-03T02:19:58.323Z,75.70
2019-01-03T02:22:38.674Z,75.80
2019-01-03T02:25:27.799Z,76.20
2019-01-03T02:28:16.954Z,75.60
2019-01-03T02:31:06.270Z,75.80
2019-01-03T02:33:55.499Z,76.30
2019-01-03T02:36:40.045Z,76.60
2019-01-03T02:39:30.042Z,76.70
2019-01-03T02:42:19.061Z,77.30
2019-01-03T02:45:08.278Z,79.10
2019-01-03T02:47:51.630Z,80.60
2019-01-03T02:50:32.853Z,82.10
2019-01-03T02:53:21.869Z,83.60
2019-01-03T02:56:10.949Z,84.40
2019-01-03T02:58:53.608Z,84.90
2019-01-03T03:01:42.628Z,85.20
2019-01-03T03:04:31.750Z,85.60
2019-01-03T03:07:17.229Z,85.40
2019-01-03T03:09:55.671Z,85.50
2019-01-03T03:12:44.712Z,85.70
2019-01-03T03:15:33.973Z,85.00
2019-01-03T03:18:22.997Z,84.80
2019-01-03T03:21:11.961Z,84.80
2019-01-03T03:24:00.965Z,85.10
2019-01-03T03:26:50.113Z,84.70
2019-01-03T03:29:39.178Z,84.20
2019-01-03T03:32:28.150Z,83.70
2019-01-03T03:35:17.531Z,83.50
2019-01-03T03:38:06.651Z,83.50
2019-01-03T03:40:50.920Z,83.20
2019-01-03T03:43:39.993Z,83.20
2019-01-03T03:46:27.407Z,83.50
2019-01-03T03:49:16.481Z,83.80
2019-01-03T03:52:05.454Z,85.00
2019-01-03T03:54:54.502Z,85.00
2019-01-03T03:57:43.815Z,85.30
2019-01-03T04:00:33.879Z,86.00
2019-01-03T04:03:22.885Z,86.30
2019-01-03T04:06:11.990Z,86.90
2019-01-03T04:09:03.047Z,87.30
2019-01-03T04:11:53.558Z,87.30
2019-01-03T04:14:53.022Z,87.20
2019-01-03T04:17:41.549Z,87.20
2019-01-03T04:20:30.669Z,86.60
2019-01-03T04:23:19.790Z,86.50
2019-01-03T04:26:08.969Z,86.70
2019-01-03T04:28:58.008Z,86.70
2019-01-03T04:31:47.162Z,86.60
2019-01-03T04:34:32.477Z,86.40
2019-01-03T04:37:21.566Z,86.20
2019-01-03T04:40:04.585Z,86.30
2019-01-03T04:42:53.803Z,86.40
2019-01-03T04:45:42.929Z,85.80
2019-01-03T04:48:31.970Z,85.80
2019-01-03T04:51:14.403Z,85.90
2019-01-03T04:54:03.504Z,86.40
2019-01-03T04:56:52.484Z,86.60
2019-01-03T04:59:41.563Z,86.60
2019-01-03T05:02:30.682Z,86.70
2019-01-03T05:05:19.802Z,86.60
2019-01-03T05:08:08.774Z,86.70
2019-01-03T05:10:52.099Z,86.50
2019-01-03T05:13:41.199Z,86.60
2019-01-03T05:16:30.406Z,86.50
2019-01-03T05:19:19.552Z,85.80
2019-01-03T05:22:08.547Z,85.80
2019-01-03T05:24:57.554Z,86.00
2019-01-03T05:27:46.620Z,86.20
2019-01-03T05:30:35.683Z,86.10
2019-01-03T05:33:17.250Z,85.60
2019-01-03T05:36:06.360Z,85.60
2019-01-03T05:38:55.432Z,85.60
2019-01-03T05:41:44.421Z,85.50
2019-01-03T05:44:29.244Z,85.70
2019-01-03T05:47:15.446Z,85.20
2019-01-03T05:50:00.361Z,85.30
2019-01-03T05:52:49.486Z,85.40
2019-01-03T05:55:38.562Z,85.30
2019-01-03T05:58:27.679Z,85.30
2019-01-03T06:01:16.742Z,85.50
2019-01-03T06:04:05.875Z,86.00
2019-01-03T06:06:53.563Z,86.10
2019-01-03T06:09:42.662Z,86.10
2019-01-03T06:12:31.827Z,86.20
2019-01-03T06:15:20.937Z,86.20
2019-01-03T06:18:10.060Z,86.60
2019-01-03T06:20:59.349Z,86.40
2019-01-03T06:23:45.664Z,86.80
2019-01-03T06:26:34.767Z,86.70
2019-01-03T06:29:21.815Z,87.00
2019-01-03T06:32:10.907Z,87.30
2019-01-03T06:35:00.018Z,87.60
2019-01-03T06:37:46.526Z,87.70
2019-01-03T06:40:31.463Z,87.80
2019-01-03T06:43:20.476Z,87.70
2019-01-03T06:46:23.023Z,87.60
2019-01-03T06:49:12.024Z,87.30
2019-01-03T06:51:52.831Z,87.50
2019-01-03T06:54:41.938Z,87.20
2019-01-03T06:57:24.305Z,86.90
2019-01-03T07:00:13.356Z,86.40
2019-01-03T07:03:02.621Z,86.60
2019-01-03T07:05:51.801Z,86.10
2019-01-03T07:08:40.796Z,86.00
2019-01-03T07:11:28.370Z,86.10
2019-01-03T07:14:17.772Z,86.10
2019-01-03T07:17:06.911Z,86.20
2019-01-03T07:19:56.286Z,86.30
2019-01-03T07:22:55.599Z,86.70
2019-01-03T07:25:44.715Z,86.90
2019-01-03T07:28:31.882Z,86.80
2019-01-03T07:31:20.993Z,86.40
2019-01-03T07:34:10.217Z,86.50
2019-01-03T07:36:59.412Z,86.30
2019-01-03T07:39:47.402Z,86.70
2019-01-03T07:42:36.570Z,86.50
2019-01-03T07:45:26.405Z,86.10
2019-01-03T07:48:11.835Z,85.80
2019-01-03T07:51:00.994Z,85.20
2019-01-03T07:53:50.151Z,84.00
2019-01-03T07:56:39.449Z,83.80
2019-01-03T07:59:28.843Z,83.70
2019-01-03T08:02:17.967Z,83.10
2019-01-03T08:05:07.076Z,80.30
2019-01-03T08:07:56.277Z,80.00
2019-01-03T08:10:47.026Z,78.60
2019-01-03T08:13:35.997Z,78.90
2019-01-03T08:16:24.338Z,78.00
2019-01-03T08:19:15.056Z,76.60
2019-01-03T08:22:05.449Z,75.30
2019-01-03T08:24:54.536Z,75.20
2019-01-03T08:27:44.943Z,74.80
2019-01-03T08:30:34.154Z,74.80
2019-01-03T08:33:23.304Z,74.80
2019-01-03T08:36:08.041Z,75.00
2019-01-03T08:38:57.217Z,75.20
2019-01-03T08:41:48.453Z,74.40
2019-01-03T08:44:40.471Z,74.20
2019-01-03T08:47:29.575Z,74.00
2019-01-03T08:50:18.725Z,74.20
2019-01-03T08:53:07.699Z,74.00
2019-01-03T08:55:57.629Z,73.20
2019-01-03T08:58:46.785Z,73.80
2019-01-03T09:01:26.289Z,73.30
2019-01-03T09:04:15.719Z,70.80
2019-01-03T09:07:05.192Z,69.80
2019-01-03T09:09:54.469Z,70.00
2019-01-03T09:12:43.457Z,69.90
2019-01-03T09:15:32.414Z,67.00
2019-01-03T09:18:21.516Z,67.80
2019-01-03T09:21:10.875Z,66.80
2019-01-03T09:23:59.918Z,66.50
2019-01-03T09:26:48.996Z,65.60
2019-01-03T09:29:38.076Z,64.50
2019-01-03T09:32:27.373Z,64.30
2019-01-03T09:35:16.349Z,62.00
2019-01-03T09:38:04.675Z,63.00
2019-01-03T09:40:54.997Z,62.60
2019-01-03T09:43:44.143Z,61.40
2019-01-03T09:46:14.115Z,60.30
2019-01-03T09:48:44.363Z,60.50
2019-01-03T09:51:16.184Z,59.00
2019-01-03T09:53:46.262Z,59.30
2019-01-03T09:56:16.259Z,59.00
2019-01-03T09:58:46.292Z,58.10
2019-01-03T10:01:16.392Z,57.10
2019-01-03T10:03:46.651Z,57.90
2019-01-03T10:06:16.857Z,56.20
2019-01-03T10:08:46.904Z,57.30
2019-01-03T10:11:16.935Z,56.70
2019-01-03T10:13:46.990Z,54.50
2019-01-03T10:16:17.042Z,52.80
2019-01-03T10:18:47.104Z,53.60
2019-01-03T10:21:17.114Z,55.60
2019-01-03T10:23:47.207Z,56.10
2019-01-03T10:26:17.296Z,53.90
2019-01-03T10:28:47.409Z,53.60
2019-01-03T10:31:17.458Z,54.70
2019-01-03T10:33:48.057Z,55.30
2019-01-03T10:36:24.149Z,53.20
2019-01-03T10:38:50.737Z,52.40
2019-01-03T10:41:20.903Z,52.80
2019-01-03T10:43:50.912Z,53.80
2019-01-03T10:46:20.936Z,52.80
2019-01-03T10:48:50.880Z,53.00
2019-01-03T10:51:20.984Z,53.50
2019-01-03T10:53:51.041Z,52.40
2019-01-03T10:56:21.126Z,52.70
2019-01-03T10:58:51.083Z,52.80
2019-01-03T11:01:23.048Z,51.50
2019-01-03T11:03:53.217Z,53.20
2019-01-03T11:06:23.245Z,53.30
2019-01-03T11:08:53.243Z,52.80
2019-01-03T11:11:23.274Z,53.50
2019-01-03T11:13:54.256Z,54.10
2019-01-03T11:16:26.012Z,53.00
2019-01-03T11:18:56.707Z,52.80
2019-01-03T11:21:26.878Z,52.90
2019-01-03T11:23:57.065Z,53.70
2019-01-03T11:26:27.140Z,54.80
2019-01-03T11:28:57.456Z,53.90
2019-01-03T11:31:28.753Z,53.80
2019-01-03T11:33:58.912Z,53.80
2019-01-03T11:36:28.946Z,55.00
2019-01-03T11:38:59.243Z,55.10
2019-01-03T11:41:29.364Z,55.00
2019-01-03T11:43:59.392Z,55.00
2019-01-03T11:46:29.388Z,56.00
2019-01-03T11:48:59.784Z,53.20
2019-01-03T11:51:29.780Z,53.70
2019-01-03T11:54:00.897Z,53.80
2019-01-03T11:56:30.918Z,53.30
2019-01-03T11:59:01.019Z,54.20
2019-01-03T12:01:31.073Z,54.10
2019-01-03T12:04:01.138Z,54.10
2019-01-03T12:06:31.481Z,54.20
2019-01-03T12:09:01.636Z,54.40
2019-01-03T12:11:33.578Z,53.80
2019-01-03T12:14:03.780Z,54.50
2019-01-03T12:16:33.872Z,54.20
2019-01-03T12:19:04.029Z,54.70
2019-01-03T12:21:34.271Z,53.00
2019-01-03T12:24:04.288Z,54.40
2019-01-03T12:26:36.244Z,55.60
2019-01-03T12:29:06.481Z,55.30
2019-01-03T12:31:36.645Z,55.30
2019-01-03T12:34:06.824Z,55.80
2019-01-03T12:36:36.914Z,55.80
2019-01-03T12:39:07.795Z,54.70
2019-01-03T12:41:37.994Z,54.50
2019-01-03T12:44:08.161Z,55.70
2019-01-03T12:46:38.378Z,55.10
2019-01-03T12:49:08.379Z,55.10
2019-01-03T12:51:38.637Z,54.80
2019-01-03T12:54:08.676Z,54.70
2019-01-03T12:56:38.703Z,54.90
2019-01-03T12:59:08.707Z,55.50
2019-01-03T13:01:38.936Z,55.30
2019-01-03T13:04:09.095Z,55.10
2019-01-03T13:06:39.029Z,56.00
2019-01-03T13:09:16.908Z,56.30
2019-01-03T13:11:47.616Z,56.50
2019-01-03T13:14:17.734Z,56.40
2019-01-03T13:16:47.908Z,56.40
2019-01-03T13:19:18.140Z,56.50
2019-01-03T13:21:49.149Z,56.80
2019-01-03T13:24:19.196Z,56.00
2019-01-03T13:26:49.221Z,57.30
2019-01-03T13:29:19.390Z,57.70
2019-01-03T13:31:51.116Z,58.60
2019-01-03T13:34:21.149Z,58.50
2019-01-03T13:36:51.075Z,58.40
2019-01-03T13:39:33.186Z,57.90
2019-01-03T13:42:03.244Z,58.40
2019-01-03T13:44:33.307Z,59.50
2019-01-03T13:47:03.522Z,59.50
2019-01-03T13:49:33.581Z,59.90
2019-01-03T13:52:05.464Z,60.00
2019-01-03T13:54:35.716Z,59.80
2019-01-03T13:57:06.056Z,60.10
2019-01-03T13:59:36.015Z,60.00
2019-01-03T14:02:06.897Z,59.50
2019-01-03T14:04:36.835Z,59.60
2019-01-03T14:07:07.937Z,59.20
2019-01-03T14:09:40.881Z,59.70
2019-01-03T14:12:11.229Z,60.70
2019-01-03T14:14:42.384Z,60.90
2019-01-03T14:17:14.135Z,61.40
2019-01-03T14:19:47.055Z,61.90
2019-01-03T14:22:19.107Z,62.30
2019-01-03T14:24:49.199Z,62.60
2019-01-03T14:27:20.789Z,62.90
2019-01-03T14:29:53.038Z,63.20
2019-01-03T14:32:23.336Z,63.80
2019-01-03T14:34:53.406Z,64.20
2019-01-03T14:37:23.537Z,65.10
2019-01-03T14:39:53.793Z,64.70
2019-01-03T14:42:23.895Z,64.90
2019-01-03T14:44:54.036Z,64.80
2019-01-03T14:47:24.264Z,65.00
2019-01-03T14:49:54.618Z,64.80
2019-01-03T14:52:24.709Z,65.00
2019-01-03T14:54:55.032Z,64.90
2019-01-03T14:57:25.461Z,65.30
2019-01-03T14:59:55.697Z,65.30
2019-01-03T15:02:27.493Z,65.50
2019-01-03T15:04:57.588Z,65.60
2019-01-03T15:07:27.719Z,65.70
2019-01-03T15:10:09.617Z,65.50
2019-01-03T15:12:39.907Z,65.60
2019-01-03T15:15:10.020Z,66.00
2019-01-03T15:17:40.219Z,66.00
2019-01-03T15:20:11.895Z,65.90
2019-01-03T15:22:41.943Z,66.00
2019-01-03T15:25:12.215Z,65.70
2019-01-03T15:27:42.797Z,65.80
2019-01-03T15:30:13.163Z,65.50
2019-01-03T15:32:43.513Z,67.00
2019-01-03T15:35:13.738Z,65.30
2019-01-03T15:37:43.955Z,65.60
2019-01-03T15:40:14.030Z,65.40
2019-01-03T15:42:44.213Z,65.10
2019-01-03T15:45:14.371Z,65.60
2019-01-03T15:47:46.040Z,65.80
2019-01-03T15:50:17.396Z,65.80
2019-01-03T15:52:47.423Z,66.00
2019-01-03T15:55:17.540Z,66.20
2019-01-03T15:57:49.026Z,66.60
2019-01-03T16:00:19.155Z,66.50
2019-01-03T16:02:49.279Z,66.80
2019-01-03T16:05:19.469Z,66.00
2019-01-03T16:07:57.222Z,66.00
2019-01-03T16:10:32.274Z,65.90
2019-01-03T16:13:10.458Z,66.00
2019-01-03T16:15:59.457Z,66.10
2019-01-03T16:18:34.017Z,66.30
2019-01-03T16:21:18.355Z,66.10
2019-01-03T16:24:01.360Z,66.00
2019-01-03T16:26:44.765Z,66.30
2019-01-03T16:29:46.219Z,66.00
2019-01-03T16:32:27.488Z,66.40
2019-01-03T16:35:06.812Z,66.30
2019-01-03T16:37:38.156Z,65.90
2019-01-03T16:40:09.896Z,66.20
2019-01-03T16:42:43.248Z,66.00
2019-01-03T16:45:27.285Z,65.70
2019-01-03T16:47:57.945Z,66.20
2019-01-03T16:50:27.901Z,66.40
2019-01-03T16:52:58.053Z,66.30
2019-01-03T16:55:28.718Z,66.00
2019-01-03T16:57:58.679Z,66.20
2019-01-03T17:00:28.734Z,66.70
2019-01-03T17:02:59.017Z,66.40
2019-01-03T17:05:29.427Z,66.60
2019-01-03T17:08:00.016Z,67.00
2019-01-03T17:10:30.964Z,66.60
2019-01-03T17:13:01.459Z,66.80
2019-01-03T17:15:32.406Z,67.10
2019-01-03T17:18:02.796Z,66.50
2019-01-03T17:20:37.201Z,66.50
2019-01-03T17:23:07.564Z,66.60
2019-01-03T17:25:37.808Z,66.60
2019-01-03T17:28:08.278Z,66.80
2019-01-03T17:30:39.523Z,66.80
2019-01-03T17:33:10.155Z,66.90
2019-01-03T17:35:40.324Z,66.90
2019-01-03T17:38:10.373Z,66.60
2019-01-03T17:40:40.927Z,67.00
2019-01-03T17:43:10.975Z,67.20
2019-01-03T17:45:41.398Z,66.90
2019-01-03T17:48:11.568Z,67.40
2019-01-03T17:50:42.747Z,67.30
2019-01-03T17:53:12.855Z,67.60
2019-01-03T17:55:43.056Z,67.90
2019-01-03T17:58:13.573Z,66.80
2019-01-03T18:00:45.419Z,67.30
2019-01-03T18:03:15.525Z,67.50
2019-01-03T18:05:47.502Z,67.80
2019-01-03T18:08:18.011Z,67.10
2019-01-03T18:10:48.669Z,67.20
2019-01-03T18:13:21.383Z,67.40
2019-01-03T18:15:59.900Z,67.60
2019-01-03T18:18:36.746Z,67.50
2019-01-03T18:21:03.839Z,67.40
2019-01-03T18:23:34.056Z,66.90
2019-01-03T18:26:04.284Z,67.20
2019-01-03T18:28:34.392Z,67.30
2019-01-03T18:31:04.556Z,67.60
2019-01-03T18:33:34.635Z,67.70
2019-01-03T18:36:04.833Z,68.00
2019-01-03T18:38:34.990Z,68.00
2019-01-03T18:41:05.155Z,67.70
2019-01-03T18:43:35.281Z,68.20
2019-01-03T18:46:05.334Z,68.30
2019-01-03T18:48:35.417Z,68.30
2019-01-03T18:51:05.550Z,68.00
2019-01-03T18:53:35.565Z,68.20
2019-01-03T18:56:06.567Z,68.10
2019-01-03T18:58:38.127Z,68.40
2019-01-03T19:01:08.367Z,68.50
2019-01-03T19:03:38.495Z,68.80
2019-01-03T19:06:09.176Z,68.90
2019-01-03T19:08:39.303Z,68.50
2019-01-03T19:11:09.574Z,69.20
2019-01-03T19:13:39.898Z,68.80
2019-01-03T19:16:09.899Z,68.60
2019-01-03T19:18:39.976Z,68.30
2019-01-03T19:21:11.296Z,68.50
2019-01-03T19:26:30.626Z,69.00
2019-01-03T19:29:00.798Z,68.90
2019-01-03T19:31:31.235Z,69.10
2019-01-03T19:34:01.566Z,69.40
2019-01-03T19:36:32.006Z,69.40
2019-01-03T19:39:02.131Z,69.60
2019-01-03T19:41:33.923Z,69.80
2019-01-03T19:44:03.940Z,69.70
2019-01-03T19:46:34.060Z,70.00
2019-01-03T19:49:04.174Z,70.00
2019-01-03T19:51:34.396Z,69.90
2019-01-03T19:54:04.535Z,70.30
2019-01-03T19:56:35.488Z,70.10
2019-01-03T19:59:05.832Z,70.00
2019-01-03T20:01:36.017Z,70.40
2019-01-03T20:04:06.239Z,70.20
2019-01-03T20:06:36.544Z,70.10
2019-01-03T20:09:06.907Z,70.20
2019-01-03T20:11:37.158Z,70.00
2019-01-03T20:14:07.387Z,70.40
2019-01-03T20:16:37.549Z,70.10
2019-01-03T20:19:07.745Z,70.40
2019-01-03T20:21:37.864Z,70.20
2019-01-03T20:24:08.217Z,70.40
2019-01-03T20:26:38.636Z,70.60
2019-01-03T20:29:08.716Z,70.80
2019-01-03T20:31:39.560Z,70.20
2019-01-03T20:34:10.412Z,69.90
2019-01-03T20:36:40.554Z,70.30
2019-01-03T20:39:10.626Z,70.40
2019-01-03T20:41:40.709Z,70.50
2019-01-03T20:44:11.649Z,70.90
2019-01-03T20:46:41.825Z,70.60
2019-01-03T20:49:13.179Z,70.60
2019-01-03T20:51:45.210Z,71.10
2019-01-03T20:54:15.567Z,71.60
2019-01-03T20:56:45.845Z,71.00
2019-01-03T20:59:17.628Z,71.00
2019-01-03T21:01:48.532Z,70.90
2019-01-03T21:04:28.354Z,71.10
2019-01-03T21:07:00.390Z,71.30
2019-01-03T21:09:37.625Z,71.50
2019-01-03T21:12:14.678Z,71.80
2019-01-03T21:14:50.565Z,71.70
2019-01-03T21:17:25.491Z,71.60
2019-01-03T21:20:03.898Z,71.30
2019-01-03T21:22:41.715Z,71.60
2019-01-03T21:25:19.087Z,71.70
2019-01-03T21:27:57.284Z,71.80
2019-01-03T21:30:40.214Z,72.10
2019-01-03T21:33:17.497Z,72.10
2019-01-03T21:35:51.103Z,72.30
2019-01-03T21:38:24.807Z,72.10
2019-01-03T21:40:59.547Z,72.40
2019-01-03T21:43:30.305Z,72.30
2019-01-03T21:46:02.275Z,72.80
2019-01-03T21:48:32.420Z,72.60
2019-01-03T21:51:02.537Z,72.50
2019-01-03T21:53:32.862Z,72.60
2019-01-03T21:56:02.966Z,71.90
2019-01-03T21:58:33.136Z,72.40
2019-01-03T22:01:03.324Z,72.10
2019-01-03T22:03:33.751Z,72.50
2019-01-03T22:06:03.876Z,72.90
2019-01-03T22:08:35.319Z,73.40
2019-01-03T22:11:05.452Z,72.70
2019-01-03T22:13:35.612Z,72.50
2019-01-03T22:16:05.891Z,72.70
2019-01-03T22:18:36.137Z,72.90
2019-01-03T22:21:06.325Z,72.50
2019-01-03T22:23:37.546Z,72.90
2019-01-03T22:26:08.726Z,73.00
2019-01-03T22:28:38.690Z,72.80
2019-01-03T22:31:08.899Z,72.70
2019-01-03T22:33:38.999Z,72.60
2019-01-03T22:36:09.260Z,72.50
2019-01-03T22:38:39.357Z,73.60
2019-01-03T22:41:10.060Z,72.40
2019-01-03T22:43:40.994Z,73.00
2019-01-03T22:46:10.981Z,72.60
2019-01-03T22:48:41.125Z,72.70
2019-01-03T22:51:11.370Z,72.50
2019-01-03T22:53:41.370Z,73.60
2019-01-03T22:56:11.431Z,72.40
2019-01-03T22:58:41.512Z,72.70
2019-01-03T23:01:11.903Z,72.60
2019-01-03T23:03:42.237Z,72.10
2019-01-03T23:06:12.293Z,72.40
2019-01-03T23:08:42.380Z,72.10
2019-01-03T23:11:14.321Z,71.60
2019-01-03T23:13:44.413Z,72.00
2019-01-03T23:16:14.576Z,72.20
2019-01-03T23:18:44.614Z,72.30
2019-01-03T23:21:14.730Z,72.50
2019-01-03T23:23:44.956Z,72.30
2019-01-03T23:26:15.064Z,72.40
2019-01-03T23:28:45.304Z,72.60
2019-01-03T23:31:15.260Z,72.60
2019-01-03T23:33:45.207Z,72.80
2019-01-03T23:36:15.194Z,72.00
2019-01-03T23:38:49.295Z,71.90
2019-01-03T23:41:19.229Z,72.50
2019-01-03T23:43:49.127Z,72.10
2019-01-03T23:46:19.148Z,71.90
2019-01-03T23:48:49.228Z,72.30
2019-01-03T23:51:19.164Z,72.50
2019-01-03T23:53:49.307Z,72.70
2019-01-03T23:56:19.355Z,72.30
2019-01-03T23:58:49.488Z,72.60
